Terminal Aerodrome Forecast
Issued by NWS Austin/San Antonio, TX

Home | Current Version | Previous Version | Text Only | Print | Product List | Glossary On
Versions: 1 2 3 4 5 6 7 8 9 10 11 12 13 14 15 16 17 18
000
FTUS44 KEWX 181900 AAA
TAFDRT
TAF AMD
KDRT 181915Z 1819/1918 13010KT P6SM SCT025 BKN035
     FM191100 11005KT P6SM BKN015
     FM191700 11010KT P6SM SCT050 BKN250=

USA.gov is the U.S. government's official web portal to all federal, state and local government web resources and services.